Wetterdaten: Woche 14.05.12 - 20.05.12 (KW20)
Datum Zeit Temp. A. Feuchte A. Luftdruck Regen Wind Richtung Taupunkt Windchill Windben
14.05.2012 00:00 9,1 C 58 % 1023,6 hPa 0,0 l/m 7,0 km/h N 1,2 C 8,6 C 16,9 km/h
14.05.2012 01:00 8,6 C 60 % 1023,1 hPa 0,0 l/m 6,1 km/h N 1,3 C 8,5 C 16,1 km/h
14.05.2012 02:00 8,2 C 62 % 1022,7 hPa 0,0 l/m 4,9 km/h N 1,3 C 8,2 C 14,5 km/h
14.05.2012 03:00 8,2 C 63 % 1022,5 hPa 0,0 l/m 5,2 km/h N 1,6 C 8,2 C 14,9 km/h
14.05.2012 04:00 7,9 C 65 % 1022,0 hPa 0,0 l/m 5,2 km/h N 1,6 C 7,9 C 15,3 km/h
14.05.2012 05:00 7,6 C 67 % 1021,5 hPa 0,0 l/m 5,3 km/h N 1,8 C 7,6 C 14,5 km/h
14.05.2012 06:00 7,6 C 68 % 1021,3 hPa 0,0 l/m 6,9 km/h N 2,0 C 7,1 C 18,9 km/h
14.05.2012 07:00 8,0 C 69 % 1021,1 hPa 0,0 l/m 7,7 km/h N 2,6 C 7,0 C 20,9 km/h
14.05.2012 08:00 8,4 C 69 % 1020,9 hPa 0,0 l/m 9,1 km/h N 3,0 C 6,4 C 22,1 km/h
14.05.2012 09:00 9,1 C 69 % 1020,7 hPa 0,0 l/m 9,8 km/h N 3,8 C 6,7 C 23,7 km/h
14.05.2012 10:00 9,3 C 70 % 1020,5 hPa 0,0 l/m 9,4 km/h N 4,0 C 7,2 C 22,5 km/h
14.05.2012 11:00 9,7 C 69 % 1020,0 hPa 0,0 l/m 11,3 km/h N 4,3 C 6,6 C 23,7 km/h
14.05.2012 12:00 11,1 C 66 % 1019,3 hPa 0,0 l/m 10,4 km/h N 5,0 C 8,6 C 22,1 km/h
14.05.2012 13:00 10,6 C 67 % 1018,9 hPa 0,0 l/m 10,4 km/h N 4,6 C 8,1 C 20,1 km/h
14.05.2012 14:00 11,9 C 64 % 1018,2 hPa 0,0 l/m 11,5 km/h N 5,3 C 8,9 C 22,1 km/h
14.05.2012 15:00 12,1 C 63 % 1017,6 hPa 0,0 l/m 9,4 km/h N 5,2 C 10,2 C 19,7 km/h
14.05.2012 16:00 11,9 C 62 % 1017,2 hPa 0,0 l/m 9,3 km/h N 4,8 C 10,1 C 20,5 km/h
14.05.2012 17:00 11,8 C 62 % 1016,8 hPa 0,0 l/m 8,8 km/h N 4,8 C 10,3 C 21,3 km/h
14.05.2012 18:00 12,0 C 61 % 1016,3 hPa 0,0 l/m 8,8 km/h N 4,6 C 10,5 C 21,3 km/h
14.05.2012 19:00 11,6 C 62 % 1015,9 hPa 0,0 l/m 7,1 km/h N 4,5 C 11,0 C 17,7 km/h
14.05.2012 20:00 11,3 C 62 % 1015,7 hPa 0,0 l/m 6,9 km/h N 4,1 C 10,9 C 18,9 km/h
14.05.2012 21:00 11,2 C 61 % 1015,6 hPa 0,0 l/m 6,6 km/h N 3,8 C 10,9 C 19,3 km/h
14.05.2012 22:00 11,0 C 62 % 1015,2 hPa 0,0 l/m 5,4 km/h N 3,9 C 11,1 C 17,3 km/h
14.05.2012 23:00 11,1 C 62 % 1014,8 hPa 0,0 l/m 1,6 km/h N 4,0 C 11,1 C 9,6 km/h
15.05.2012 00:00 10,8 C 63 % 1014,2 hPa 0,0 l/m 1,9 km/h N 4,0 C 10,8 C 9,7 km/h
15.05.2012 01:00 10,8 C 62 % 1013,8 hPa 0,0 l/m 1,3 km/h N 3,9 C 10,8 C 7,7 km/h
15.05.2012 02:00 10,4 C 64 % 1013,3 hPa 0,0 l/m 1,1 km/h N 3,9 C 10,4 C 7,2 km/h
15.05.2012 03:00 10,3 C 64 % 1012,7 hPa 0,0 l/m 1,1 km/h N 3,8 C 10,3 C 6,8 km/h
15.05.2012 04:00 10,2 C 65 % 1012,2 hPa 0,0 l/m 0,2 km/h N 3,9 C 10,2 C 4,0 km/h
15.05.2012 05:00 9,7 C 68 % 1011,9 hPa 0,0 l/m 0,2 km/h N 4,1 C 9,7 C 2,4 km/h
15.05.2012 06:00 9,7 C 68 % 1011,8 hPa 0,0 l/m 0,6 km/h N 4,0 C 9,7 C 5,6 km/h
15.05.2012 07:00 10,4 C 66 % 1011,7 hPa 0,0 l/m 1,5 km/h N 4,4 C 10,4 C 7,7 km/h
15.05.2012 08:00 11,6 C 65 % 1011,5 hPa 0,0 l/m 4,2 km/h N 5,2 C 11,6 C 12,9 km/h
15.05.2012 09:00 13,2 C 60 % 1011,2 hPa 0,0 l/m 6,8 km/h N 5,7 C 12,7 C 18,9 km/h
15.05.2012 10:00 14,4 C 53 % 1010,9 hPa 0,0 l/m 9,1 km/h N 4,9 C 12,9 C 20,9 km/h
15.05.2012 11:00 15,4 C 47 % 1010,4 hPa 0,0 l/m 8,9 km/h N 4,3 C 14,2 C 21,7 km/h
15.05.2012 12:00 16,7 C 42 % 1009,8 hPa 0,0 l/m 7,1 km/h N 3,6 C 16,2 C 22,1 km/h
15.05.2012 13:00 17,6 C 39 % 1009,0 hPa 0,0 l/m 8,4 km/h N 3,5 C 16,6 C 20,9 km/h
15.05.2012 14:00 18,3 C 38 % 1008,4 hPa 0,0 l/m 9,7 km/h N 3,6 C 16,8 C 25,3 km/h
15.05.2012 15:00 18,3 C 33 % 1007,8 hPa 0,0 l/m 12,8 km/h N 1,9 C 15,9 C 29,0 km/h
15.05.2012 16:00 18,5 C 34 % 1007,1 hPa 0,0 l/m 9,6 km/h N 2,4 C 17,2 C 26,1 km/h
15.05.2012 17:00 18,2 C 35 % 1007,0 hPa 0,0 l/m 11,8 km/h N 2,2 C 16,0 C 27,4 km/h
15.05.2012 18:00 18,3 C 36 % 1006,7 hPa 0,0 l/m 7,6 km/h N 2,8 C 17,7 C 19,7 km/h
15.05.2012 19:00 18,1 C 37 % 1006,7 hPa 0,0 l/m 2,7 km/h N 3,1 C 18,1 C 9,3 km/h
15.05.2012 20:00 16,3 C 43 % 1006,8 hPa 0,0 l/m 0,0 km/h N 3,4 C 16,3 C 0,8 km/h
15.05.2012 21:00 12,3 C 56 % 1007,5 hPa 0,0 l/m 0,0 km/h N 3,6 C 12,3 C 0,0 km/h
15.05.2012 22:00 9,8 C 64 % 1007,8 hPa 0,0 l/m 0,0 km/h N 3,2 C 9,8 C 0,0 km/h
15.05.2012 23:00 9,4 C 71 % 1008,5 hPa 0,0 l/m 3,2 km/h N 4,4 C 8,8 C 14,1 km/h
16.05.2012 00:00 11,4 C 69 % 1009,2 hPa 0,0 l/m 12,6 km/h N 5,9 C 7,8 C 35,8 km/h
16.05.2012 01:00 10,7 C 66 % 1009,0 hPa 0,0 l/m 12,9 km/h N 4,6 C 6,9 C 33,4 km/h
16.05.2012 02:00 9,9 C 66 % 1008,9 hPa 0,0 l/m 14,9 km/h N 3,9 C 5,0 C 40,2 km/h
16.05.2012 03:00 9,4 C 68 % 1009,0 hPa 0,0 l/m 18,1 km/h N 3,8 C 3,3 C 50,3 km/h
16.05.2012 04:00 9,3 C 70 % 1009,4 hPa 0,3 l/m 17,9 km/h N 4,1 C 3,1 C 40,3 km/h
16.05.2012 05:00 9,2 C 69 % 1009,8 hPa 0,0 l/m 15,9 km/h N 3,8 C 3,8 C 39,8 km/h
16.05.2012 06:00 9,3 C 69 % 1010,7 hPa 0,0 l/m 14,6 km/h N 3,9 C 4,5 C 31,4 km/h
16.05.2012 07:00 8,8 C 76 % 1011,6 hPa 0,0 l/m 10,7 km/h N 4,8 C 5,9 C 23,7 km/h
16.05.2012 08:00 8,6 C 78 % 1012,3 hPa 0,0 l/m 13,0 km/h N 5,0 C 4,4 C 29,4 km/h
16.05.2012 09:00 8,4 C 75 % 1012,5 hPa 0,0 l/m 14,5 km/h N 4,3 C 3,5 C 32,2 km/h
16.05.2012 10:00 8,9 C 72 % 1012,8 hPa 0,0 l/m 16,2 km/h N 4,1 C 3,3 C 36,6 km/h
16.05.2012 11:00 9,2 C 71 % 1012,8 hPa 0,0 l/m 15,1 km/h N 4,1 C 4,2 C 35,4 km/h
16.05.2012 12:00 10,2 C 68 % 1012,7 hPa 0,0 l/m 15,9 km/h N 4,5 C 5,1 C 33,4 km/h
16.05.2012 13:00 10,5 C 67 % 1012,4 hPa 0,0 l/m 17,8 km/h N 4,6 C 4,7 C 38,2 km/h
16.05.2012 14:00 10,7 C 66 % 1012,6 hPa 0,0 l/m 16,9 km/h N 4,6 C 5,3 C 34,6 km/h
16.05.2012 15:00 10,5 C 68 % 1012,8 hPa 0,0 l/m 17,2 km/h N 4,8 C 4,9 C 40,2 km/h
16.05.2012 16:00 9,5 C 74 % 1013,4 hPa 0,0 l/m 15,9 km/h N 5,1 C 4,2 C 36,2 km/h
16.05.2012 17:00 9,2 C 78 % 1013,3 hPa 0,0 l/m 13,9 km/h N 5,6 C 4,7 C 35,0 km/h
16.05.2012 18:00 9,2 C 76 % 1013,7 hPa 0,0 l/m 15,8 km/h N 5,2 C 3,8 C 35,4 km/h
16.05.2012 19:00 9,3 C 75 % 1014,5 hPa 0,0 l/m 13,6 km/h N 5,1 C 4,9 C 29,4 km/h
16.05.2012 20:00 9,1 C 76 % 1015,3 hPa 0,0 l/m 12,1 km/h N 5,0 C 5,5 C 28,6 km/h
16.05.2012 21:00 8,7 C 77 % 1016,0 hPa 0,0 l/m 14,8 km/h N 4,8 C 3,8 C 31,8 km/h
16.05.2012 22:00 8,4 C 76 % 1016,8 hPa 0,0 l/m 12,4 km/h N 4,5 C 4,4 C 27,0 km/h
16.05.2012 23:00 8,5 C 73 % 1017,3 hPa 0,0 l/m 13,6 km/h N 4,0 C 4,0 C 32,2 km/h
17.05.2012 00:00 8,3 C 75 % 1017,6 hPa 0,0 l/m 13,3 km/h N 4,1 C 3,8 C 31,8 km/h
17.05.2012 01:00 8,1 C 74 % 1017,9 hPa 0,0 l/m 14,2 km/h N 3,8 C 3,3 C 32,2 km/h
17.05.2012 02:00 7,7 C 75 % 1018,5 hPa 0,0 l/m 15,1 km/h N 3,5 C 2,3 C 31,0 km/h
17.05.2012 03:00 7,4 C 75 % 1019,0 hPa 0,0 l/m 15,2 km/h N 3,3 C 2,0 C 32,2 km/h
17.05.2012 04:00 7,4 C 72 % 1019,3 hPa 0,0 l/m 14,0 km/h N 2,7 C 2,5 C 35,0 km/h
17.05.2012 05:00 7,2 C 72 % 1019,6 hPa 0,0 l/m 13,4 km/h N 2,5 C 2,6 C 30,2 km/h
17.05.2012 06:00 7,6 C 72 % 1020,1 hPa 0,0 l/m 12,2 km/h N 2,9 C 3,6 C 29,4 km/h
17.05.2012 07:00 8,3 C 70 % 1020,6 hPa 0,0 l/m 13,8 km/h N 3,2 C 3,6 C 32,2 km/h
17.05.2012 08:00 9,4 C 65 % 1020,8 hPa 0,0 l/m 15,0 km/h N 3,0 C 4,3 C 32,6 km/h
17.05.2012 09:00 9,6 C 61 % 1021,1 hPa 0,0 l/m 14,6 km/h N 2,5 C 4,9 C 34,2 km/h
17.05.2012 10:00 10,2 C 61 % 1021,0 hPa 0,0 l/m 15,2 km/h N 3,0 C 5,3 C 35,0 km/h
17.05.2012 11:00 11,3 C 57 % 1020,9 hPa 0,0 l/m 15,8 km/h N 3,0 C 6,3 C 31,8 km/h
17.05.2012 12:00 12,1 C 51 % 1020,7 hPa 0,0 l/m 16,0 km/h N 2,1 C 7,2 C 34,6 km/h
17.05.2012 13:00 12,4 C 47 % 1020,3 hPa 0,0 l/m 16,5 km/h N 1,4 C 7,5 C 34,2 km/h
17.05.2012 14:00 12,6 C 44 % 1020,1 hPa 0,0 l/m 15,0 km/h N 0,5 C 8,2 C 35,8 km/h
17.05.2012 15:00 12,9 C 41 % 1019,7 hPa 0,0 l/m 13,8 km/h N -0,1 C 9,1 C 31,4 km/h
17.05.2012 16:00 12,5 C 42 % 1019,6 hPa 0,0 l/m 13,1 km/h N -0,2 C 8,9 C 29,0 km/h
17.05.2012 17:00 12,4 C 41 % 1019,6 hPa 0,0 l/m 10,9 km/h N -0,4 C 9,9 C 25,8 km/h
17.05.2012 18:00 11,8 C 43 % 1019,6 hPa 0,0 l/m 10,4 km/h N -0,5 C 9,4 C 24,9 km/h
17.05.2012 19:00 11,5 C 43 % 1019,6 hPa 0,0 l/m 6,6 km/h N -0,7 C 11,1 C 18,9 km/h
17.05.2012 20:00 10,4 C 45 % 1019,9 hPa 0,0 l/m 4,1 km/h N -1,2 C 10,4 C 12,5 km/h
17.05.2012 21:00 8,9 C 48 % 1020,3 hPa 0,0 l/m 1,3 km/h N -1,5 C 8,9 C 5,6 km/h
17.05.2012 22:00 6,3 C 58 % 1020,6 hPa 0,0 l/m 0,0 km/h N -1,4 C 6,3 C 0,0 km/h
17.05.2012 23:00 4,1 C 66 % 1020,7 hPa 0,0 l/m 0,0 km/h N -1,7 C 4,1 C 0,0 km/h
18.05.2012 00:00 3,4 C 69 % 1020,6 hPa 0,0 l/m 0,1 km/h N -1,9 C 3,4 C 1,6 km/h
18.05.2012 01:00 3,0 C 71 % 1020,4 hPa 0,0 l/m 0,0 km/h N -1,8 C 3,0 C 1,6 km/h
18.05.2012 02:00 2,7 C 72 % 1020,1 hPa 0,0 l/m 0,0 km/h N -1,9 C 2,7 C 2,0 km/h
18.05.2012 03:00 2,3 C 72 % 1019,9 hPa 0,0 l/m 0,1 km/h N -2,2 C 2,3 C 3,2 km/h
18.05.2012 04:00 1,6 C 74 % 1019,8 hPa 0,0 l/m 0,3 km/h N -2,5 C 1,6 C 3,6 km/h
18.05.2012 05:00 1,3 C 76 % 1019,5 hPa 0,0 l/m 0,2 km/h N -2,6 C 1,3 C 2,8 km/h
18.05.2012 06:00 1,7 C 76 % 1019,4 hPa 0,0 l/m 0,1 km/h N -2,0 C 1,7 C 2,8 km/h
18.05.2012 07:00 4,4 C 71 % 1019,0 hPa 0,0 l/m 0,1 km/h N -0,5 C 4,4 C 1,6 km/h
18.05.2012 08:00 9,7 C 55 % 1018,8 hPa 0,0 l/m 1,3 km/h N 1,1 C 9,7 C 6,4 km/h
18.05.2012 09:00 12,1 C 46 % 1018,4 hPa 0,0 l/m 2,0 km/h N 0,7 C 12,1 C 8,1 km/h
18.05.2012 10:00 13,5 C 40 % 1017,8 hPa 0,0 l/m 4,7 km/h N 0,1 C 13,5 C 17,7 km/h
18.05.2012 11:00 14,6 C 40 % 1017,3 hPa 0,0 l/m 6,4 km/h N 1,1 C 13,8 C 20,9 km/h
18.05.2012 12:00 15,6 C 40 % 1016,9 hPa 0,0 l/m 7,6 km/h N 1,9 C 14,9 C 24,1 km/h
18.05.2012 13:00 17,1 C 37 % 1016,3 hPa 0,0 l/m 8,1 km/h N 2,4 C 16,3 C 26,5 km/h
18.05.2012 14:00 17,8 C 35 % 1016,0 hPa 0,0 l/m 9,5 km/h N 2,2 C 16,4 C 26,5 km/h
18.05.2012 15:00 18,0 C 36 % 1015,3 hPa 0,0 l/m 9,1 km/h N 2,6 C 16,8 C 25,7 km/h
18.05.2012 16:00 17,8 C 37 % 1015,1 hPa 0,0 l/m 6,7 km/h N 2,8 C 17,5 C 22,1 km/h
18.05.2012 17:00 17,2 C 37 % 1015,1 hPa 0,0 l/m 8,6 km/h N 2,4 C 16,2 C 23,7 km/h
18.05.2012 18:00 17,2 C 37 % 1014,9 hPa 0,0 l/m 7,6 km/h N 2,3 C 16,6 C 20,9 km/h
18.05.2012 19:00 17,0 C 37 % 1014,9 hPa 0,0 l/m 9,5 km/h N 2,1 C 15,6 C 24,5 km/h
18.05.2012 20:00 15,7 C 40 % 1015,2 hPa 0,0 l/m 7,2 km/h N 2,0 C 15,2 C 19,7 km/h
18.05.2012 21:00 14,5 C 42 % 1015,4 hPa 0,0 l/m 4,6 km/h N 1,7 C 14,5 C 16,1 km/h
18.05.2012 22:00 13,2 C 46 % 1015,5 hPa 0,0 l/m 1,3 km/h N 1,8 C 13,2 C 7,7 km/h
18.05.2012 23:00 12,1 C 50 % 1015,4 hPa 0,0 l/m 1,1 km/h N 1,9 C 12,1 C 5,6 km/h
19.05.2012 00:00 10,4 C 57 % 1015,4 hPa 0,0 l/m 0,1 km/h N 2,3 C 10,4 C 1,2 km/h
19.05.2012 01:00 8,5 C 64 % 1015,4 hPa 0,0 l/m 0,0 km/h N 2,0 C 8,5 C 0,0 km/h
19.05.2012 02:00 6,8 C 70 % 1015,4 hPa 0,0 l/m 0,0 km/h N 1,6 C 6,8 C 0,0 km/h
19.05.2012 03:00 5,5 C 76 % 1015,5 hPa 0,0 l/m 0,0 km/h N 1,5 C 5,5 C 0,0 km/h
19.05.2012 04:00 4,6 C 79 % 1015,8 hPa 0,0 l/m 0,0 km/h N 1,3 C 4,6 C 0,0 km/h
19.05.2012 05:00 3,9 C 82 % 1016,0 hPa 0,0 l/m 0,0 km/h N 1,0 C 3,9 C 0,0 km/h
19.05.2012 06:00 4,4 C 83 % 1016,3 hPa 0,0 l/m 0,0 km/h N 1,7 C 4,4 C 0,0 km/h
19.05.2012 07:00 7,6 C 78 % 1016,5 hPa 0,0 l/m 0,1 km/h N 4,0 C 7,6 C 2,0 km/h
19.05.2012 08:00 13,2 C 58 % 1016,4 hPa 0,0 l/m 1,3 km/h N 5,1 C 13,2 C 6,9 km/h
19.05.2012 09:00 17,0 C 47 % 1016,2 hPa 0,0 l/m 4,9 km/h N 5,6 C 17,0 C 15,7 km/h
19.05.2012 10:00 18,8 C 43 % 1016,2 hPa 0,0 l/m 7,3 km/h N 5,8 C 18,4 C 20,1 km/h
19.05.2012 11:00 20,5 C 41 % 1016,1 hPa 0,0 l/m 5,6 km/h N 6,6 C 20,5 C 22,5 km/h
19.05.2012 12:00 21,5 C 38 % 1015,6 hPa 0,0 l/m 6,2 km/h N 6,6 C 21,3 C 20,1 km/h
19.05.2012 13:00 22,4 C 39 % 1015,2 hPa 0,0 l/m 6,3 km/h N 7,6 C 22,3 C 21,3 km/h
19.05.2012 14:00 23,2 C 36 % 1014,7 hPa 0,0 l/m 5,8 km/h N 7,1 C 23,0 C 19,7 km/h
19.05.2012 15:00 23,3 C 35 % 1014,0 hPa 0,0 l/m 4,6 km/h N 7,0 C 23,3 C 20,9 km/h
19.05.2012 16:00 22,6 C 36 % 1013,6 hPa 0,0 l/m 6,0 km/h N 6,6 C 22,4 C 19,7 km/h
19.05.2012 17:00 22,6 C 35 % 1013,3 hPa 0,0 l/m 6,8 km/h N 6,4 C 22,3 C 23,3 km/h
19.05.2012 18:00 22,8 C 37 % 1012,9 hPa 0,0 l/m 5,4 km/h N 7,3 C 22,8 C 20,5 km/h
19.05.2012 19:00 21,9 C 39 % 1012,8 hPa 0,0 l/m 5,1 km/h N 7,1 C 21,9 C 17,3 km/h
19.05.2012 20:00 20,2 C 42 % 1012,9 hPa 0,0 l/m 3,1 km/h N 6,8 C 20,2 C 12,9 km/h
19.05.2012 21:00 18,4 C 47 % 1013,2 hPa 0,0 l/m 2,1 km/h N 6,7 C 18,4 C 10,1 km/h
19.05.2012 22:00 17,4 C 50 % 1013,2 hPa 0,0 l/m 1,3 km/h N 6,7 C 17,4 C 8,9 km/h
19.05.2012 23:00 15,1 C 57 % 1013,0 hPa 0,0 l/m 0,0 km/h N 6,7 C 15,1 C 0,0 km/h
20.05.2012 00:00 11,9 C 69 % 1012,7 hPa 0,0 l/m 0,0 km/h N 6,3 C 11,9 C 0,0 km/h
20.05.2012 01:00 10,1 C 76 % 1012,2 hPa 0,0 l/m 0,0 km/h N 6,0 C 10,1 C 1,6 km/h
20.05.2012 02:00 9,5 C 78 % 1012,0 hPa 0,0 l/m 0,0 km/h N 5,8 C 9,5 C 0,8 km/h
20.05.2012 03:00 8,6 C 81 % 1011,8 hPa 0,0 l/m 0,0 km/h N 5,5 C 8,6 C 0,4 km/h
20.05.2012 04:00 8,7 C 82 % 1011,4 hPa 0,0 l/m 0,0 km/h N 5,8 C 8,7 C 0,4 km/h
20.05.2012 05:00 9,1 C 82 % 1011,2 hPa 0,0 l/m 0,0 km/h N 6,2 C 9,1 C 0,8 km/h
20.05.2012 06:00 11,2 C 78 % 1011,0 hPa 0,0 l/m 4,1 km/h N 7,4 C 11,1 C 10,5 km/h
20.05.2012 07:00 15,8 C 61 % 1010,8 hPa 0,0 l/m 7,6 km/h N 8,1 C 15,1 C 20,1 km/h
20.05.2012 08:00 18,4 C 54 % 1011,0 hPa 0,0 l/m 9,4 km/h N 8,9 C 17,1 C 22,5 km/h
20.05.2012 09:00 19,4 C 53 % 1010,8 hPa 0,0 l/m 12,4 km/h N 9,5 C 17,2 C 29,0 km/h
20.05.2012 10:00 21,5 C 47 % 1010,6 hPa 0,0 l/m 12,8 km/h N 9,8 C 19,6 C 30,2 km/h
20.05.2012 11:00 22,9 C 44 % 1010,4 hPa 0,0 l/m 14,4 km/h N 9,9 C 20,9 C 33,0 km/h
20.05.2012 12:00 23,8 C 42 % 1009,9 hPa 0,0 l/m 14,8 km/h N 10,1 C 21,9 C 35,0 km/h
20.05.2012 13:00 24,9 C 41 % 1009,6 hPa 0,0 l/m 13,3 km/h N 10,8 C 23,4 C 32,2 km/h
20.05.2012 14:00 26,0 C 37 % 1008,9 hPa 0,0 l/m 13,4 km/h N 10,3 C 24,8 C 31,8 km/h
20.05.2012 15:00 26,3 C 37 % 1008,3 hPa 0,0 l/m 12,9 km/h N 10,4 C 25,2 C 31,8 km/h
20.05.2012 16:00 26,0 C 38 % 1007,8 hPa 0,0 l/m 12,4 km/h N 10,6 C 24,9 C 28,6 km/h
20.05.2012 17:00 25,8 C 39 % 1007,7 hPa 0,0 l/m 14,1 km/h N 10,9 C 24,4 C 31,0 km/h
20.05.2012 18:00 25,3 C 41 % 1007,2 hPa 0,0 l/m 12,6 km/h N 10,9 C 24,1 C 32,2 km/h
20.05.2012 19:00 24,4 C 43 % 1006,8 hPa 0,0 l/m 7,6 km/h N 11,0 C 24,0 C 21,3 km/h
20.05.2012 20:00 23,1 C 47 % 1006,7 hPa 0,0 l/m 8,7 km/h N 11,0 C 22,4 C 24,1 km/h
20.05.2012 21:00 22,0 C 50 % 1006,9 hPa 0,0 l/m 7,2 km/h N 10,9 C 21,7 C 18,5 km/h
20.05.2012 22:00 20,7 C 54 % 1007,2 hPa 0,0 l/m 4,4 km/h N 11,1 C 20,7 C 14,1 km/h
20.05.2012 23:00 19,5 C 58 % 1007,3 hPa 0,0 l/m 1,2 km/h N 10,9 C 19,5 C 4,4 km/h
Min-Datum _ 18.05.12 15.05.12 20.05.12 - 15.05.12 - 18.05.12 18.05.12 15.05.12
_ Min-Zeit 05:30 17:00 20:15 - 00:00 - 05:00 05:30 05:00
Minimum _ 1,2 C 31 % 1006,5 hPa - 0,0 km/h - -2,6 C 1,2 C 0,0 km/h
Max-Datum _ 20.05.12 19.05.12 14.05.12 16.05.12 16.05.12 - 20.05.12 20.05.12 16.05.12
_ Max-Zeit 15:00 06:15 00:00 04:00 04:00 - 13:30 15:00 03:00
Maximum _ 26,5 C 83 % 1023,8 hPa 0,3 l/m 19,7 km/h
N
- 11,4 C 25,5 C 57,9 km/h
N
Durchschnitt _ 12,6 C 58 % 1014,8 hPa #0,3 l/m 7,6 km/h N 4,0 C 11,0 C 19,5 km/h